Time;durP1;ratioP1;P1;durP2;ratioP2;P2;SDS_P1;SDS_P2;PMS_P1;PMS_P2;Temp;Humidity;BMP_temperature;BMP_pressure;BME280_temperature;BME280_humidity;BME280_pressure;Samples;Min_cycle;Max_cycle;Signal;HPM_P1;HPM_P2
2023/12/23 00:01:24;;;;;;;6.23;1.33;;;7.80;99.90;;;;;;5056146;28;20214;-78
2023/12/23 00:03:50;;;;;;;8.53;1.40;;;7.80;99.90;;;;;;5056389;28;20286;-76
2023/12/23 00:06:16;;;;;;;6.40;1.73;;;7.80;99.90;;;;;;5056344;28;20172;-77
2023/12/23 00:08:41;;;;;;;5.87;1.43;;;7.80;99.90;;;;;;5056468;28;20171;-77
2023/12/23 00:11:07;;;;;;;11.30;2.07;;;7.80;99.90;;;;;;5056468;28;20647;-77
2023/12/23 00:13:32;;;;;;;7.20;1.93;;;7.80;99.90;;;;;;5056355;28;20168;-77
2023/12/23 00:15:59;;;;;;;7.53;1.40;;;7.80;99.90;;;;;;5038128;28;20294;-76
2023/12/23 00:18:24;;;;;;;5.33;1.40;;;7.80;99.90;;;;;;5055764;28;20665;-76
2023/12/23 00:20:50;;;;;;;8.63;1.40;;;7.90;99.90;;;;;;5055850;28;20203;-77
2023/12/23 00:23:15;;;;;;;7.03;1.73;;;7.90;99.90;;;;;;5055723;28;20168;-77
2023/12/23 00:25:41;;;;;;;10.57;2.17;;;7.90;99.90;;;;;;5055737;28;20585;-77
2023/12/23 00:28:07;;;;;;;7.53;2.33;;;8.00;99.90;;;;;;5055330;28;20642;-76
2023/12/23 00:30:32;;;;;;;7.33;1.97;;;8.00;99.90;;;;;;5055815;28;20204;-77
2023/12/23 00:32:58;;;;;;;9.13;1.83;;;8.00;99.90;;;;;;5055406;28;20671;-77
2023/12/23 00:35:26;;;;;;;8.03;2.10;;;8.00;99.90;;;;;;5055406;28;20180;-77
2023/12/23 00:37:51;;;;;;;10.33;2.00;;;8.00;99.90;;;;;;5055730;28;20644;-77
2023/12/23 00:40:17;;;;;;;11.50;1.67;;;8.00;99.90;;;;;;5037713;28;20283;-76
2023/12/23 00:42:42;;;;;;;12.17;2.30;;;8.00;99.90;;;;;;5055536;28;20519;-77
2023/12/23 00:45:08;;;;;;;9.27;2.30;;;8.00;99.90;;;;;;5055532;28;20175;-77
2023/12/23 00:47:34;;;;;;;10.13;2.90;;;8.00;99.90;;;;;;5055488;28;20175;-77
2023/12/23 00:49:59;;;;;;;6.50;2.97;;;8.00;99.90;;;;;;5055566;28;20651;-77
2023/12/23 00:52:25;;;;;;;12.53;4.00;;;8.10;99.90;;;;;;5055753;28;20175;-77
2023/12/23 00:54:50;;;;;;;15.43;3.53;;;8.10;99.90;;;;;;5060793;28;20171;-77
2023/12/23 00:57:16;;;;;;;10.60;3.87;;;8.10;99.90;;;;;;5044624;28;20182;-77
2023/12/23 00:59:41;;;;;;;11.40;4.13;;;8.00;99.90;;;;;;5060983;28;20183;-76
2023/12/23 01:02:07;;;;;;;9.37;3.50;;;8.00;99.90;;;;;;5062473;28;20175;-77
2023/12/23 01:04:33;;;;;;;12.90;3.77;;;8.00;99.90;;;;;;5038973;28;20262;-76
2023/12/23 01:06:58;;;;;;;7.97;3.27;;;7.90;99.90;;;;;;5036716;28;20176;-76
2023/12/23 01:09:24;;;;;;;16.33;3.80;;;7.90;99.90;;;;;;5054598;28;20167;-77
2023/12/23 01:11:49;;;;;;;7.10;3.33;;;7.90;99.90;;;;;;5054522;28;20187;-77
2023/12/23 01:14:15;;;;;;;9.77;2.47;;;7.90;99.90;;;;;;5054512;28;20174;-77
2023/12/23 01:16:41;;;;;;;7.57;2.07;;;7.90;99.90;;;;;;5054475;28;20214;-77
2023/12/23 01:19:06;;;;;;;8.23;2.60;;;7.90;99.90;;;;;;5054932;28;20175;-77
2023/12/23 01:21:32;;;;;;;7.90;2.33;;;7.80;99.90;;;;;;5054167;28;20203;-77
2023/12/23 01:23:57;;;;;;;9.53;2.80;;;7.80;99.90;;;;;;5054557;28;20187;-76
2023/12/23 01:26:23;;;;;;;12.07;2.57;;;7.80;99.90;;;;;;5054454;28;20168;-76
2023/12/23 01:28:48;;;;;;;5.80;1.80;;;7.70;99.90;;;;;;5036437;28;20191;-77
2023/12/23 01:31:14;;;;;;;9.20;1.60;;;7.80;99.90;;;;;;5054022;28;20282;-77
2023/12/23 01:33:39;;;;;;;9.03;2.03;;;7.80;99.90;;;;;;5054177;28;20166;-77
2023/12/23 01:36:05;;;;;;;8.90;1.67;;;7.70;99.90;;;;;;5053987;28;20247;-76
2023/12/23 01:38:34;;;;;;;11.53;2.50;;;7.70;99.90;;;;;;5054229;28;20191;-76
2023/12/23 01:41:00;;;;;;;9.53;2.80;;;7.80;99.90;;;;;;5053823;28;20227;-77
2023/12/23 01:43:25;;;;;;;7.53;2.80;;;7.70;99.90;;;;;;5053782;28;20230;-76
2023/12/23 01:45:59;;;;;;;16.37;4.60;;;7.70;99.90;;;;;;5053718;28;20190;-76
2023/12/23 01:48:25;;;;;;;13.47;4.97;;;7.70;99.90;;;;;;5053675;28;20151;-76
2023/12/23 01:50:52;;;;;;;14.07;5.20;;;7.70;99.90;;;;;;5053595;28;20196;-76
2023/12/23 01:53:19;;;;;;;10.27;2.80;;;7.70;99.90;;;;;;5053667;28;20180;-76
2023/12/23 01:55:45;;;;;;;6.27;1.90;;;7.70;99.90;;;;;;5053840;28;20262;-76
2023/12/23 01:58:11;;;;;;;11.50;1.97;;;7.60;99.90;;;;;;5053726;28;20647;-76
2023/12/23 02:00:36;;;;;;;7.50;1.10;;;7.60;99.90;;;;;;5053856;28;20272;-77
2023/12/23 02:03:03;;;;;;;11.17;1.80;;;7.60;99.90;;;;;;5053834;28;20164;-77
2023/12/23 02:05:28;;;;;;;8.20;1.60;;;7.60;99.90;;;;;;5053975;28;20188;-76
2023/12/23 02:07:54;;;;;;;10.10;2.20;;;7.60;99.90;;;;;;5054091;28;20175;-76
2023/12/23 02:10:20;;;;;;;7.40;1.37;;;7.50;99.90;;;;;;5053408;28;20197;-77
2023/12/23 02:13:15;;;;;;;10.47;1.40;;;7.50;99.90;;;;;;5054429;28;20255;-77
2023/12/23 02:15:43;;;;;;;4.53;1.00;;;7.50;99.90;;;;;;5053757;28;20650;-77
2023/12/23 02:18:10;;;;;;;7.47;1.57;;;7.50;99.90;;;;;;5053605;28;20586;-77
2023/12/23 02:20:35;;;;;;;7.00;1.70;;;7.40;99.90;;;;;;5053570;28;20205;-77
2023/12/23 02:23:01;;;;;;;7.87;1.17;;;7.40;99.90;;;;;;5054449;28;20250;-76
2023/12/23 02:25:26;;;;;;;9.10;1.43;;;7.40;99.90;;;;;;5053999;28;20587;-76
2023/12/23 02:27:59;;;;;;;11.03;2.37;;;7.40;99.90;;;;;;5053616;28;20540;-77
2023/12/23 02:30:26;;;;;;;5.50;1.33;;;7.40;99.90;;;;;;5053755;28;20187;-77
2023/12/23 02:32:53;;;;;;;6.40;1.30;;;7.40;99.90;;;;;;5053615;28;20254;-77
2023/12/23 02:35:23;;;;;;;4.23;1.10;;;7.40;99.90;;;;;;5053449;28;20655;-77
2023/12/23 02:37:49;;;;;;;4.07;1.13;;;7.40;99.90;;;;;;5052893;28;20187;-77
2023/12/23 02:40:14;;;;;;;6.83;1.30;;;7.40;99.90;;;;;;5053088;28;20710;-77
2023/12/23 02:42:40;;;;;;;5.63;1.13;;;7.40;99.90;;;;;;5053400;28;20172;-77
2023/12/23 02:45:06;;;;;;;6.67;1.90;;;7.30;99.90;;;;;;5053084;28;20716;-77
2023/12/23 02:47:32;;;;;;;7.90;1.70;;;7.40;99.90;;;;;;5053258;28;20234;-77
2023/12/23 02:49:57;;;;;;;6.50;1.77;;;7.40;99.90;;;;;;5053114;28;20184;-77
2023/12/23 02:52:23;;;;;;;10.43;2.37;;;7.40;99.90;;;;;;5053101;28;20218;-77
2023/12/23 02:54:48;;;;;;;4.77;1.43;;;7.30;99.90;;;;;;5053029;28;20243;-76
2023/12/23 02:57:14;;;;;;;5.67;1.50;;;7.40;99.90;;;;;;5035015;28;20229;-76
2023/12/23 02:59:39;;;;;;;4.40;1.37;;;7.30;99.90;;;;;;5052950;28;20589;-77
2023/12/23 03:02:05;;;;;;;9.57;1.77;;;7.40;99.90;;;;;;5052848;28;20219;-76
2023/12/23 03:04:32;;;;;;;9.47;2.57;;;7.40;99.90;;;;;;5052694;28;20167;-76
2023/12/23 03:06:58;;;;;;;10.00;2.10;;;7.40;99.90;;;;;;5052783;28;20726;-76
2023/12/23 03:09:24;;;;;;;5.60;2.40;;;7.40;99.90;;;;;;5053107;28;20255;-76
2023/12/23 03:11:49;;;;;;;7.27;2.63;;;7.40;99.90;;;;;;5035074;28;20596;-76
2023/12/23 03:14:15;;;;;;;4.07;1.90;;;7.30;99.90;;;;;;5053479;28;20168;-77
2023/12/23 03:16:41;;;;;;;4.50;1.70;;;7.30;99.90;;;;;;5053255;28;20199;-77
2023/12/23 03:19:09;;;;;;;8.87;2.30;;;7.30;99.90;;;;;;5053232;28;20233;-77
2023/12/23 03:21:34;;;;;;;6.67;2.10;;;7.40;99.90;;;;;;5053134;28;20203;-76
2023/12/23 03:24:00;;;;;;;7.53;2.00;;;7.30;99.90;;;;;;5056089;28;20182;-76
2023/12/23 03:26:26;;;;;;;4.80;1.80;;;7.30;99.90;;;;;;5056547;28;20652;-77
2023/12/23 03:28:51;;;;;;;8.20;2.00;;;7.30;99.90;;;;;;5056694;28;20172;-77
2023/12/23 03:31:17;;;;;;;7.13;2.20;;;7.30;99.90;;;;;;5056281;28;20229;-77
2023/12/23 03:33:42;;;;;;;9.40;2.03;;;7.40;99.90;;;;;;5056443;28;20172;-76
2023/12/23 03:36:08;;;;;;;9.07;2.47;;;7.30;99.90;;;;;;5056392;28;20678;-76
2023/12/23 03:38:33;;;;;;;7.33;2.43;;;7.30;99.90;;;;;;5056216;28;20597;-76
2023/12/23 03:40:59;;;;;;;12.83;3.17;;;7.40;99.90;;;;;;5056176;28;20203;-77
2023/12/23 03:43:24;;;;;;;12.83;2.93;;;7.40;99.90;;;;;;5056786;28;20167;-77
2023/12/23 03:45:50;;;;;;;8.77;3.30;;;7.50;99.90;;;;;;5056637;28;20172;-76
2023/12/23 03:48:16;;;;;;;10.00;4.10;;;7.60;99.90;;;;;;5056510;28;20171;-76
2023/12/23 03:50:41;;;;;;;15.07;5.10;;;7.70;99.90;;;;;;5056353;28;20560;-77
2023/12/23 03:53:07;;;;;;;16.07;5.63;;;7.80;99.90;;;;;;5056475;28;20180;-76
2023/12/23 03:55:32;;;;;;;12.83;4.90;;;7.90;99.90;;;;;;5056384;28;20184;-77
2023/12/23 03:57:59;;;;;;;23.60;6.13;;;8.00;99.90;;;;;;5056399;28;20270;-76
2023/12/23 04:00:25;;;;;;;16.70;6.23;;;8.20;99.90;;;;;;5055895;28;20203;-77
2023/12/23 04:02:51;;;;;;;13.87;5.30;;;8.30;99.90;;;;;;5056455;28;20183;-77
2023/12/23 04:05:16;;;;;;;21.53;5.63;;;8.30;99.90;;;;;;5056806;28;20172;-77
2023/12/23 04:07:42;;;;;;;14.80;5.37;;;8.30;99.90;;;;;;5056696;28;20187;-77
2023/12/23 04:10:08;;;;;;;14.20;5.17;;;8.40;99.90;;;;;;5055629;28;20207;-76
2023/12/23 04:12:34;;;;;;;24.20;5.63;;;8.40;99.90;;;;;;5055650;28;20588;-76
2023/12/23 04:14:59;;;;;;;13.67;5.50;;;8.50;99.90;;;;;;5055752;28;20214;-76
2023/12/23 04:17:25;;;;;;;12.73;5.57;;;8.50;99.90;;;;;;5055608;28;20183;-76
2023/12/23 04:19:51;;;;;;;19.73;5.83;;;8.60;99.90;;;;;;5055339;28;20176;-76
2023/12/23 04:22:16;;;;;;;13.90;5.80;;;8.60;99.90;;;;;;5055407;28;20175;-76
2023/12/23 04:24:42;;;;;;;16.27;6.20;;;8.70;99.90;;;;;;5055359;28;20206;-77
2023/12/23 04:27:08;;;;;;;13.67;5.47;;;8.70;99.90;;;;;;5055500;28;20722;-76
2023/12/23 04:29:34;;;;;;;15.20;6.23;;;8.70;99.90;;;;;;5055420;28;20687;-76
2023/12/23 04:31:59;;;;;;;13.83;7.23;;;8.70;99.90;;;;;;5055491;28;20243;-77
2023/12/23 04:34:25;;;;;;;18.10;7.60;;;8.70;99.90;;;;;;5055630;28;20543;-77
2023/12/23 04:36:50;;;;;;;13.27;7.93;;;8.80;99.90;;;;;;5055562;28;20250;-77
2023/12/23 04:39:16;;;;;;;12.20;7.67;;;8.80;99.90;;;;;;5055796;28;20541;-77
2023/12/23 04:41:47;;;;;;;15.63;7.90;;;8.80;99.90;;;;;;5055691;28;20214;-77
2023/12/23 04:44:13;;;;;;;14.63;8.40;;;8.80;99.90;;;;;;5056066;28;20144;-77
2023/12/23 04:46:40;;;;;;;17.77;8.53;;;8.80;99.90;;;;;;5055546;28;20171;-77
2023/12/23 04:49:05;;;;;;;12.33;7.40;;;8.80;99.90;;;;;;5055235;28;20168;-77
2023/12/23 04:51:31;;;;;;;12.10;7.67;;;8.70;99.90;;;;;;5055428;28;20202;-77
2023/12/23 04:53:56;;;;;;;17.33;8.50;;;8.80;99.90;;;;;;5055169;28;20172;-76
2023/12/23 04:56:22;;;;;;;17.03;8.33;;;8.70;99.90;;;;;;5055230;28;20235;-77
2023/12/23 04:58:48;;;;;;;16.60;7.03;;;8.70;99.90;;;;;;5055407;28;20221;-77
2023/12/23 05:01:13;;;;;;;16.30;7.47;;;8.70;99.90;;;;;;5055372;28;20203;-76
2023/12/23 05:03:39;;;;;;;16.03;6.57;;;8.70;99.90;;;;;;5055041;28;20674;-76
2023/12/23 05:06:06;;;;;;;15.40;7.80;;;8.70;99.90;;;;;;5055286;28;20174;-76
2023/12/23 05:08:32;;;;;;;15.40;7.27;;;8.70;99.90;;;;;;5055259;28;20168;-77
2023/12/23 05:10:58;;;;;;;19.37;7.67;;;8.70;99.90;;;;;;5055632;28;20253;-77
2023/12/23 05:13:24;;;;;;;17.33;6.80;;;8.70;99.90;;;;;;5055144;28;20545;-77
2023/12/23 05:15:49;;;;;;;14.50;5.97;;;8.70;99.90;;;;;;5054864;28;20649;-77
2023/12/23 05:18:15;;;;;;;14.53;6.23;;;8.70;99.90;;;;;;5054829;28;20222;-76
2023/12/23 05:20:40;;;;;;;18.20;7.13;;;8.70;99.90;;;;;;5055016;28;20203;-77
2023/12/23 05:23:06;;;;;;;13.37;5.60;;;8.70;99.90;;;;;;5056366;28;20168;-77
2023/12/23 05:25:32;;;;;;;16.87;5.83;;;8.70;99.90;;;;;;5058319;28;20172;-77
2023/12/23 05:27:57;;;;;;;15.33;5.63;;;8.70;99.90;;;;;;5057167;28;20164;-77
2023/12/23 05:30:23;;;;;;;13.13;5.67;;;8.70;99.90;;;;;;5055273;28;20212;-77
2023/12/23 05:32:48;;;;;;;12.00;5.60;;;8.80;99.90;;;;;;5055588;28;20195;-77
2023/12/23 05:35:14;;;;;;;14.07;5.60;;;8.80;99.90;;;;;;5059545;28;20176;-77
2023/12/23 05:37:40;;;;;;;11.67;5.37;;;8.80;99.90;;;;;;5060755;28;20175;-77
2023/12/23 05:40:06;;;;;;;12.23;5.03;;;8.80;99.90;;;;;;5060511;28;20211;-77
2023/12/23 05:42:31;;;;;;;9.03;4.93;;;8.80;99.90;;;;;;5056761;28;20168;-77
2023/12/23 05:44:57;;;;;;;9.60;4.53;;;8.80;99.90;;;;;;5035489;28;20175;-77
2023/12/23 05:47:23;;;;;;;12.40;4.93;;;8.80;99.90;;;;;;5054246;28;20204;-77
2023/12/23 05:49:48;;;;;;;9.90;4.50;;;8.90;99.90;;;;;;5054605;28;20206;-77
2023/12/23 05:52:14;;;;;;;10.23;4.57;;;8.90;99.90;;;;;;5053897;28;20648;-76
2023/12/23 05:54:39;;;;;;;14.83;4.87;;;8.80;99.90;;;;;;5053594;28;20204;-76
2023/12/23 05:57:05;;;;;;;12.60;4.43;;;8.90;99.90;;;;;;5053693;28;20178;-76
2023/12/23 05:59:32;;;;;;;9.90;4.20;;;8.90;99.90;;;;;;5053904;28;20174;-77
2023/12/23 06:01:58;;;;;;;6.37;3.73;;;8.90;99.90;;;;;;5053641;28;20195;-77
2023/12/23 06:04:23;;;;;;;9.77;4.27;;;8.90;99.90;;;;;;5053891;28;20179;-77
2023/12/23 06:06:49;;;;;;;10.93;4.57;;;8.90;99.90;;;;;;5053795;28;20229;-77
2023/12/23 06:09:14;;;;;;;11.90;4.57;;;8.80;99.90;;;;;;5053484;28;20225;-78
2023/12/23 06:11:40;;;;;;;13.40;4.23;;;8.90;99.90;;;;;;5053496;28;20218;-77
2023/12/23 06:14:05;;;;;;;6.93;4.00;;;8.90;99.90;;;;;;5053759;28;20523;-77
2023/12/23 06:16:31;;;;;;;9.87;4.07;;;8.90;99.90;;;;;;5053709;28;20175;-77
2023/12/23 06:18:57;;;;;;;12.00;4.40;;;8.90;99.90;;;;;;5053562;28;20171;-77
2023/12/23 06:21:22;;;;;;;10.23;4.07;;;9.00;99.90;;;;;;5053411;28;20576;-76
2023/12/23 06:23:48;;;;;;;12.33;3.80;;;9.00;99.90;;;;;;5053835;28;20612;-77
2023/12/23 06:26:13;;;;;;;12.97;3.97;;;9.00;99.90;;;;;;5053445;28;20171;-77
2023/12/23 06:28:39;;;;;;;5.67;3.60;;;9.10;99.90;;;;;;5053406;28;20221;-77
2023/12/23 06:31:04;;;;;;;9.90;4.13;;;9.10;99.90;;;;;;5053067;28;20245;-77
2023/12/23 06:33:30;;;;;;;11.57;4.10;;;9.10;99.90;;;;;;5053658;28;20175;-77
2023/12/23 06:35:55;;;;;;;9.93;3.43;;;9.00;99.90;;;;;;5053696;28;20176;-77
2023/12/23 06:38:21;;;;;;;9.90;3.67;;;9.00;99.90;;;;;;5053861;28;20179;-77
2023/12/23 06:40:46;;;;;;;9.70;3.97;;;9.00;99.90;;;;;;5053915;28;20211;-77
2023/12/23 06:43:12;;;;;;;11.23;4.03;;;9.00;99.90;;;;;;5053223;28;20524;-77
2023/12/23 06:45:37;;;;;;;8.63;3.33;;;9.00;99.90;;;;;;5053181;28;20553;-77
2023/12/23 06:48:03;;;;;;;11.23;3.10;;;9.10;99.90;;;;;;5053285;28;20164;-77
2023/12/23 06:50:29;;;;;;;11.10;3.50;;;9.00;99.90;;;;;;5053053;28;20270;-77
2023/12/23 06:52:54;;;;;;;15.70;3.70;;;9.00;99.90;;;;;;5053350;28;20230;-77
2023/12/23 06:55:20;;;;;;;8.70;3.33;;;9.00;99.90;;;;;;5054038;28;20234;-77
2023/12/23 06:57:46;;;;;;;11.03;3.23;;;9.10;99.90;;;;;;5054218;28;20171;-77
2023/12/23 07:00:12;;;;;;;10.10;3.37;;;9.10;99.90;;;;;;5054048;28;20210;-77
2023/12/23 07:02:39;;;;;;;10.40;3.00;;;9.10;99.90;;;;;;5053811;28;20228;-78
2023/12/23 07:05:05;;;;;;;12.57;3.97;;;9.10;99.90;;;;;;5054462;28;20180;-77
2023/12/23 07:07:30;;;;;;;12.03;3.20;;;9.10;99.90;;;;;;5054234;28;20187;-77
2023/12/23 07:09:58;;;;;;;11.23;3.03;;;9.10;99.90;;;;;;5053998;28;20198;-77
2023/12/23 07:12:23;;;;;;;9.80;3.10;;;9.10;99.90;;;;;;5054783;28;20250;-77
2023/12/23 07:14:49;;;;;;;10.73;3.43;;;9.10;99.90;;;;;;5055251;28;20736;-77
2023/12/23 07:17:14;;;;;;;9.53;3.67;;;9.10;99.90;;;;;;5036223;28;20678;-77
2023/12/23 07:19:40;;;;;;;10.17;2.73;;;9.10;99.90;;;;;;5054140;28;20179;-77
2023/12/23 07:22:05;;;;;;;12.77;3.83;;;9.10;99.90;;;;;;5036309;28;20238;-77
2023/12/23 07:24:31;;;;;;;14.07;3.40;;;9.20;99.90;;;;;;5036605;28;20229;-77
2023/12/23 07:26:57;;;;;;;12.00;3.20;;;9.20;99.90;;;;;;5054349;28;20562;-77
2023/12/23 07:29:23;;;;;;;11.47;3.07;;;9.10;99.90;;;;;;5055000;28;20172;-77
2023/12/23 07:31:48;;;;;;;9.40;3.03;;;9.20;99.90;;;;;;5054850;28;20207;-77
2023/12/23 07:34:14;;;;;;;9.53;3.03;;;9.20;99.90;;;;;;5040506;28;20167;-77
2023/12/23 07:36:40;;;;;;;8.87;2.87;;;9.20;99.90;;;;;;5042510;28;20259;-77
2023/12/23 07:39:05;;;;;;;10.47;2.70;;;9.10;99.90;;;;;;5056693;28;20267;-77
2023/12/23 07:41:31;;;;;;;10.70;2.97;;;9.10;99.90;;;;;;5052680;28;20207;-77
2023/12/23 07:43:56;;;;;;;11.97;3.10;;;9.10;99.90;;;;;;5052948;28;20174;-77
2023/12/23 07:46:22;;;;;;;12.63;3.40;;;9.10;99.90;;;;;;5053266;28;20200;-77
2023/12/23 07:48:47;;;;;;;8.80;2.53;;;9.10;99.90;;;;;;5053358;28;20179;-77
2023/12/23 07:51:13;;;;;;;9.83;3.33;;;9.00;99.90;;;;;;5053089;28;20196;-76
2023/12/23 07:53:39;;;;;;;8.60;3.03;;;9.00;99.90;;;;;;5053303;28;20208;-78
2023/12/23 07:56:06;;;;;;;10.23;3.40;;;9.10;99.90;;;;;;5052298;28;20187;-76
2023/12/23 07:58:32;;;;;;;11.27;3.33;;;9.00;99.90;;;;;;5052213;28;20635;-75
2023/12/23 08:00:57;;;;;;;14.67;3.10;;;9.00;99.90;;;;;;5052378;28;20203;-76
2023/12/23 08:03:23;;;;;;;6.40;2.67;;;9.00;99.90;;;;;;5052093;28;20179;-77
2023/12/23 08:05:48;;;;;;;12.97;3.53;;;9.00;99.90;;;;;;5052001;28;20175;-77
2023/12/23 08:08:14;;;;;;;9.20;3.47;;;9.00;99.90;;;;;;5052952;28;20187;-77
2023/12/23 08:10:40;;;;;;;10.33;3.10;;;9.00;99.90;;;;;;5055523;28;20690;-77
2023/12/23 08:13:06;;;;;;;12.03;4.03;;;9.00;99.90;;;;;;5035866;28;20184;-77
2023/12/23 08:15:32;;;;;;;10.33;3.37;;;9.00;99.90;;;;;;5054361;28;20491;-75
2023/12/23 08:17:57;;;;;;;13.03;3.47;;;9.00;99.90;;;;;;5054343;28;20179;-75
2023/12/23 08:20:23;;;;;;;7.37;2.80;;;8.90;99.90;;;;;;5054491;28;20397;-76
2023/12/23 08:22:48;;;;;;;12.13;3.27;;;9.00;99.90;;;;;;5053347;28;20172;-76
2023/12/23 08:25:15;;;;;;;5.70;2.70;;;9.00;99.90;;;;;;5055018;28;20209;-75
2023/12/23 08:27:40;;;;;;;9.00;3.03;;;9.00;99.90;;;;;;5054979;28;20168;-75
2023/12/23 08:30:07;;;;;;;8.73;2.90;;;9.10;99.90;;;;;;5055008;28;20183;-75
2023/12/23 08:32:33;;;;;;;9.70;3.10;;;9.10;99.90;;;;;;5055107;28;20194;-74
2023/12/23 08:34:59;;;;;;;10.50;3.47;;;9.10;99.90;;;;;;5054954;28;20639;-75
2023/12/23 08:37:24;;;;;;;12.80;3.00;;;9.10;99.90;;;;;;5055108;28;20182;-74
2023/12/23 08:39:50;;;;;;;10.00;2.80;;;9.10;99.90;;;;;;5036518;28;20600;-77
2023/12/23 08:42:16;;;;;;;9.23;2.73;;;9.20;99.90;;;;;;5073610;28;20191;-75
2023/12/23 08:44:42;;;;;;;10.40;2.80;;;9.20;99.90;;;;;;5062677;28;20219;-75
2023/12/23 08:47:07;;;;;;;13.97;2.93;;;9.20;99.90;;;;;;5052830;28;20236;-75
2023/12/23 08:49:33;;;;;;;6.77;2.80;;;9.30;99.90;;;;;;5075768;28;20227;-77
2023/12/23 08:51:58;;;;;;;8.20;2.60;;;9.30;99.90;;;;;;5074724;28;20198;-75
2023/12/23 08:54:24;;;;;;;9.20;2.50;;;9.40;99.90;;;;;;5074736;28;20258;-75
2023/12/23 08:56:49;;;;;;;10.80;2.50;;;9.40;99.90;;;;;;5074671;28;20174;-75
2023/12/23 08:59:16;;;;;;;12.57;2.80;;;9.50;99.90;;;;;;5056537;28;20175;-75
2023/12/23 09:01:43;;;;;;;10.37;2.17;;;9.60;99.90;;;;;;5074623;28;20565;-76
2023/12/23 09:04:09;;;;;;;9.73;2.07;;;9.60;99.90;;;;;;5074383;28;20651;-76
2023/12/23 09:06:35;;;;;;;7.07;2.23;;;9.50;99.90;;;;;;5056684;28;20269;-74
2023/12/23 09:09:01;;;;;;;7.70;2.17;;;9.70;99.90;;;;;;5074262;28;20186;-75
2023/12/23 09:11:27;;;;;;;9.67;2.33;;;9.70;99.90;;;;;;5074184;28;20248;-75
2023/12/23 09:13:52;;;;;;;10.27;2.57;;;9.70;99.90;;;;;;5074262;28;20179;-76
2023/12/23 09:16:18;;;;;;;7.33;2.07;;;9.70;99.90;;;;;;5072239;28;20244;-75
2023/12/23 09:18:43;;;;;;;12.83;2.53;;;9.70;99.90;;;;;;5074136;28;20251;-76
2023/12/23 09:21:09;;;;;;;7.70;1.97;;;9.80;99.90;;;;;;5054830;28;20203;-76
2023/12/23 09:23:34;;;;;;;10.53;2.13;;;9.80;99.90;;;;;;5074334;28;20217;-75
2023/12/23 09:26:00;;;;;;;8.13;2.30;;;9.80;99.90;;;;;;5073960;28;20254;-76
2023/12/23 09:28:25;;;;;;;10.47;2.43;;;9.80;99.90;;;;;;5071569;28;20655;-76
2023/12/23 09:30:51;;;;;;;8.20;1.97;;;9.90;99.90;;;;;;5055903;28;20257;-75
2023/12/23 09:33:16;;;;;;;6.47;2.13;;;9.80;99.90;;;;;;5053730;28;20260;-75
2023/12/23 09:35:42;;;;;;;9.40;2.30;;;9.80;99.90;;;;;;5062493;28;20174;-76
2023/12/23 09:38:09;;;;;;;15.23;2.50;;;9.90;99.90;;;;;;5073473;28;20202;-75
2023/12/23 09:40:37;;;;;;;9.97;1.90;;;9.90;99.90;;;;;;5055628;28;20202;-76
2023/12/23 09:43:03;;;;;;;9.17;1.93;;;9.90;99.90;;;;;;5073315;28;20174;-76
2023/12/23 09:45:32;;;;;;;7.50;1.60;;;9.90;99.90;;;;;;5072535;28;20198;-75
2023/12/23 09:47:58;;;;;;;11.57;2.00;;;10.00;99.90;;;;;;5055911;28;20178;-76
2023/12/23 09:50:23;;;;;;;9.70;1.70;;;10.00;99.90;;;;;;5062571;28;20578;-76
2023/12/23 09:52:52;;;;;;;11.13;2.23;;;10.10;99.90;;;;;;5053549;28;20230;-75
2023/12/23 09:55:18;;;;;;;7.83;2.00;;;10.10;99.90;;;;;;5054340;28;20176;-76
2023/12/23 09:57:44;;;;;;;8.20;2.30;;;10.10;99.90;;;;;;5061722;28;20198;-75
2023/12/23 10:00:11;;;;;;;8.40;2.37;;;10.20;99.90;;;;;;5053162;28;20212;-76
2023/12/23 10:02:36;;;;;;;5.97;1.60;;;10.20;99.90;;;;;;5053133;28;20180;-76
2023/12/23 10:05:02;;;;;;;6.97;1.70;;;10.20;99.90;;;;;;5053449;28;20233;-75
2023/12/23 10:07:28;;;;;;;8.13;2.00;;;10.20;99.90;;;;;;5068570;28;20243;-76
2023/12/23 10:09:53;;;;;;;11.10;2.23;;;10.20;99.90;;;;;;5073080;28;20202;-76
2023/12/23 10:12:21;;;;;;;5.50;1.60;;;10.20;99.90;;;;;;5073153;28;20209;-76
2023/12/23 10:14:48;;;;;;;7.00;1.40;;;10.20;99.90;;;;;;5073103;28;20178;-76
2023/12/23 10:17:14;;;;;;;4.50;1.27;;;10.10;99.90;;;;;;5071753;28;20202;-75
2023/12/23 10:19:39;;;;;;;4.37;1.50;;;10.00;99.90;;;;;;5072942;28;20177;-75
2023/12/23 10:22:06;;;;;;;6.37;1.37;;;10.00;99.90;;;;;;5071214;28;20203;-75
2023/12/23 10:24:32;;;;;;;7.40;1.43;;;9.90;99.90;;;;;;5072607;28;20187;-76
2023/12/23 10:26:58;;;;;;;6.90;1.77;;;9.80;99.90;;;;;;5072851;28;20220;-75
2023/12/23 10:29:26;;;;;;;6.47;1.70;;;9.80;99.90;;;;;;5072821;28;20635;-76
2023/12/23 10:31:55;;;;;;;5.97;1.70;;;9.70;99.90;;;;;;5072562;28;20553;-76
2023/12/23 10:34:23;;;;;;;5.90;1.40;;;9.70;99.90;;;;;;5053074;28;20640;-76
2023/12/23 10:36:51;;;;;;;10.97;1.63;;;9.60;99.90;;;;;;5072575;28;20228;-76
2023/12/23 10:39:22;;;;;;;2.83;1.67;;;9.60;99.90;;;;;;5072661;28;20179;-76
2023/12/23 10:42:02;;;;;;;5.50;1.30;;;9.60;99.90;;;;;;5072602;28;20213;-76
2023/12/23 10:44:30;;;;;;;4.60;1.60;;;9.60;99.90;;;;;;5071424;28;20218;-76
2023/12/23 10:46:57;;;;;;;5.27;1.60;;;9.60;99.90;;;;;;5072512;28;20171;-75
2023/12/23 10:49:24;;;;;;;8.50;1.70;;;9.60;99.90;;;;;;5072481;28;20566;-76
2023/12/23 10:51:50;;;;;;;8.70;1.53;;;9.60;99.90;;;;;;5073220;28;20333;-76
2023/12/23 10:54:17;;;;;;;8.27;1.77;;;9.60;99.90;;;;;;5054241;28;20270;-75
2023/12/23 10:56:45;;;;;;;6.03;2.07;;;9.60;99.90;;;;;;5052340;28;20183;-75
2023/12/23 10:59:10;;;;;;;7.90;1.90;;;9.60;99.90;;;;;;5034398;28;20176;-74
2023/12/23 11:01:38;;;;;;;6.70;1.77;;;9.60;99.90;;;;;;5052471;28;20619;-76
2023/12/23 11:04:04;;;;;;;10.00;2.03;;;9.60;99.90;;;;;;5067003;28;20187;-76
2023/12/23 11:06:34;;;;;;;6.30;2.13;;;9.50;99.90;;;;;;5072511;28;20178;-75
2023/12/23 11:09:02;;;;;;;10.13;1.97;;;9.50;99.90;;;;;;5072257;28;20198;-75
2023/12/23 11:11:29;;;;;;;8.67;2.17;;;9.50;99.90;;;;;;5072250;28;20289;-75
2023/12/23 11:13:55;;;;;;;9.23;2.03;;;9.50;99.90;;;;;;5071019;28;20186;-76
2023/12/23 11:16:21;;;;;;;9.37;2.40;;;9.50;99.90;;;;;;5072391;28;20255;-75
2023/12/23 11:18:51;;;;;;;7.23;2.20;;;9.50;99.90;;;;;;5072679;28;20658;-77
2023/12/23 11:21:19;;;;;;;9.83;2.40;;;9.50;99.90;;;;;;5072422;28;20210;-76
2023/12/23 11:23:46;;;;;;;8.47;2.50;;;9.50;99.90;;;;;;5071255;28;20191;-77
2023/12/23 11:26:39;;;;;;;8.00;2.47;;;9.50;99.90;;;;;;5072844;28;20186;-77
2023/12/23 11:29:05;;;;;;;9.67;2.93;;;9.50;99.90;;;;;;5072894;28;20599;-76
2023/12/23 11:31:31;;;;;;;11.00;2.50;;;9.50;99.90;;;;;;5072085;28;20216;-75
2023/12/23 11:34:11;;;;;;;8.00;2.57;;;9.50;99.90;;;;;;5071118;28;20654;-75
2023/12/23 11:36:36;;;;;;;7.83;2.33;;;9.50;99.90;;;;;;5054159;28;20584;-76
2023/12/23 11:39:02;;;;;;;8.17;2.33;;;9.50;99.90;;;;;;5072155;28;20271;-76
2023/12/23 11:41:29;;;;;;;10.47;2.70;;;9.50;99.90;;;;;;5072300;28;20229;-76
2023/12/23 11:43:55;;;;;;;8.30;2.10;;;9.50;99.90;;;;;;5073050;28;20199;-76
2023/12/23 11:46:23;;;;;;;9.93;2.87;;;9.50;99.90;;;;;;5074236;28;20281;-75
2023/12/23 11:48:49;;;;;;;6.90;2.20;;;9.60;99.90;;;;;;5075967;28;20167;-76
2023/12/23 11:51:15;;;;;;;11.67;2.27;;;9.60;99.90;;;;;;5076038;28;20296;-76
2023/12/23 11:53:41;;;;;;;4.77;1.87;;;9.70;99.90;;;;;;5076927;28;20198;-77
2023/12/23 11:56:07;;;;;;;6.97;1.80;;;9.70;99.90;;;;;;5075504;28;20316;-77
2023/12/23 11:58:32;;;;;;;8.97;2.07;;;9.80;99.90;;;;;;5076803;28;20182;-76
2023/12/23 12:00:59;;;;;;;12.30;2.40;;;9.80;99.90;;;;;;5076982;28;20210;-76
2023/12/23 12:03:26;;;;;;;7.63;1.73;;;9.80;99.90;;;;;;5075885;28;20178;-77
2023/12/23 12:05:56;;;;;;;5.13;1.60;;;9.90;99.90;;;;;;5074975;28;20183;-77
2023/12/23 12:08:21;;;;;;;5.07;1.80;;;9.90;99.90;;;;;;5075859;28;20171;-76
2023/12/23 12:10:47;;;;;;;7.10;1.73;;;10.00;99.90;;;;;;5057878;28;20209;-76
2023/12/23 12:13:12;;;;;;;9.17;1.93;;;10.00;99.90;;;;;;5076049;28;20210;-77
2023/12/23 12:15:41;;;;;;;4.80;1.30;;;10.10;99.90;;;;;;5074157;28;20198;-76
2023/12/23 12:18:06;;;;;;;6.40;1.50;;;10.20;99.90;;;;;;5075723;28;20182;-77
2023/12/23 12:20:32;;;;;;;8.70;1.73;;;10.30;99.90;;;;;;5075464;28;20202;-77
2023/12/23 12:23:00;;;;;;;4.40;1.67;;;10.40;99.90;;;;;;5075525;28;20659;-76
2023/12/23 12:25:26;;;;;;;3.90;1.30;;;10.50;99.90;;;;;;5074487;28;20592;-75
2023/12/23 12:27:52;;;;;;;6.77;1.57;;;10.40;99.90;;;;;;5074519;28;20290;-77
2023/12/23 12:30:18;;;;;;;6.97;1.70;;;10.50;99.90;;;;;;5075207;28;20219;-76
2023/12/23 12:32:47;;;;;;;8.03;1.80;;;10.50;99.90;;;;;;5075468;28;20211;-77
2023/12/23 12:35:13;;;;;;;5.53;1.67;;;10.50;99.90;;;;;;5075424;28;20646;-76
2023/12/23 12:37:40;;;;;;;5.23;1.30;;;10.60;99.90;;;;;;5073500;28;20194;-76
2023/12/23 12:40:13;;;;;;;6.47;1.20;;;10.60;99.90;;;;;;5075517;28;20577;-77
2023/12/23 12:42:44;;;;;;;10.70;1.50;;;10.70;99.90;;;;;;5063867;28;20192;-76
2023/12/23 12:45:11;;;;;;;4.50;1.30;;;10.70;99.90;;;;;;5055687;28;20688;-76